Kezdőlap
METAR-TAF:

METAR-TAF

Repülőterek :

Chester, Connecticut, Amerikai Egyesült Államok

földrajzi szélesség: 41-23-02N, földrajzi hosszúság: 072-30-21W, magasság: 127 m

Jelenlegi meteorológiai megfigyelések

A jelentés 18 perccel ezelõtt készült, 20:15 UTC
Dél-délnyugati szél 7 kt
Hőmérséklet 7°C
Páratartalom 29%
Légköri nyomás 1020 hPa
Látótávolság: 16.1 km
Derült ég

METAR: KSNC 222015Z AUTO 21007KT 10SM CLR 07/M10 A3012 RMK AO2

Idő: 15:33 (20:33 UTC)


TAF: hiányzik

Meteorológiai megfigyelések és előrejelzések több, mint 4000 repülőtéren (METAR és TAF jelentéseket).

A térképen piros és sárga pontok jelzik az elérhető meteorológiai állomásokat.

Mozgassa az egeret a pont fölött, hogy megjelenjen az állomás neve.

Azután kattintson az időjárási megfigyelések és előrejelzések megtekintéséhez.

A térkép megváltoztatása: kattintson a fekete keresztel jelölt zöld gombra ráközelítéshez, a vonallal jelölt zöld gombra távolításhoz, vagy a zöld nyilakra a szomszédos térképek eléréséhez.


METAR-TAF: